Time;durP1;ratioP1;P1;durP2;ratioP2;P2;SDS_P1;SDS_P2;PMS_P1;PMS_P2;Temp;Humidity;BMP_temperature;BMP_pressure;BME280_temperature;BME280_humidity;BME280_pressure;Samples;Min_cycle;Max_cycle;Signal;HPM_P1;HPM_P2
2024/03/12 00:02:25;;;;;;;17.50;10.10;;;8.60;99.90;;;;;;5053014;28;20705;-70
2024/03/12 00:04:50;;;;;;;26.73;11.37;;;8.60;99.90;;;;;;5052526;28;20171;-70
2024/03/12 00:07:20;;;;;;;23.27;10.70;;;8.60;99.90;;;;;;5052346;28;20409;-70
2024/03/12 00:09:46;;;;;;;13.40;9.20;;;8.60;99.90;;;;;;5052543;28;20191;-70
2024/03/12 00:12:12;;;;;;;21.33;11.20;;;8.70;99.90;;;;;;5052708;28;20410;-70
2024/03/12 00:14:39;;;;;;;20.20;12.13;;;8.50;99.90;;;;;;5052405;28;20196;-70
2024/03/12 00:17:08;;;;;;;26.43;11.40;;;8.50;99.90;;;;;;5052577;28;20583;-69
2024/03/12 00:19:33;;;;;;;22.67;11.77;;;8.50;99.90;;;;;;5052490;28;20899;-69
2024/03/12 00:22:00;;;;;;;26.40;11.03;;;8.50;99.90;;;;;;5052478;28;20406;-69
2024/03/12 00:24:25;;;;;;;24.90;12.30;;;8.50;99.90;;;;;;5051945;28;20170;-70
2024/03/12 00:26:52;;;;;;;33.33;13.50;;;8.50;99.90;;;;;;5052429;28;20410;-70
2024/03/12 00:29:19;;;;;;;29.63;15.00;;;8.40;99.90;;;;;;5051210;28;20625;-69
2024/03/12 00:31:45;;;;;;;30.17;14.43;;;8.40;99.90;;;;;;5052381;28;20454;-69
2024/03/12 00:34:11;;;;;;;26.87;14.57;;;8.40;99.90;;;;;;5052098;28;20425;-69
2024/03/12 00:36:36;;;;;;;28.77;14.47;;;8.40;99.90;;;;;;5050909;28;20809;-69
2024/03/12 00:39:02;;;;;;;29.00;15.00;;;8.50;99.90;;;;;;5052173;28;20677;-70
2024/03/12 00:41:29;;;;;;;30.43;14.90;;;8.50;99.90;;;;;;5052119;28;20534;-70
2024/03/12 00:43:54;;;;;;;30.53;16.67;;;8.50;99.90;;;;;;5051924;28;20410;-69
2024/03/12 00:46:21;;;;;;;33.80;15.90;;;8.50;99.90;;;;;;5051253;28;20923;-69
2024/03/12 00:48:47;;;;;;;29.30;16.00;;;8.50;99.90;;;;;;5052067;28;20183;-69
2024/03/12 00:51:12;;;;;;;38.67;17.57;;;8.40;99.90;;;;;;5050383;28;20452;-69
2024/03/12 00:53:39;;;;;;;41.43;17.77;;;8.40;99.90;;;;;;5051681;28;20765;-70
2024/03/12 00:56:04;;;;;;;37.10;18.77;;;8.40;99.90;;;;;;5051912;28;20500;-70
2024/03/12 00:58:33;;;;;;;41.87;20.80;;;8.40;99.90;;;;;;5051757;28;20431;-70
2024/03/12 01:00:58;;;;;;;29.43;15.47;;;8.40;99.90;;;;;;5051867;28;20166;-70
2024/03/12 01:03:26;;;;;;;48.07;19.20;;;8.40;99.90;;;;;;5051836;28;20404;-69
2024/03/12 01:05:53;;;;;;;40.73;19.70;;;8.40;99.90;;;;;;5051571;28;20163;-70
2024/03/12 01:08:20;;;;;;;43.80;19.37;;;8.40;99.90;;;;;;5051821;28;20451;-69
2024/03/12 01:10:46;;;;;;;41.73;20.00;;;8.40;99.90;;;;;;5051668;28;20495;-70
2024/03/12 01:13:11;;;;;;;37.83;20.53;;;8.50;99.90;;;;;;5051772;28;20405;-70
2024/03/12 01:15:37;;;;;;;38.73;19.60;;;8.60;99.90;;;;;;5051466;28;20172;-69
2024/03/12 01:18:03;;;;;;;50.80;23.17;;;8.60;99.90;;;;;;5052021;28;20194;-70
2024/03/12 01:20:29;;;;;;;40.47;18.67;;;8.50;99.90;;;;;;5051447;28;20761;-69
2024/03/12 01:22:55;;;;;;;41.73;19.27;;;8.60;99.90;;;;;;5051604;28;20885;-70
2024/03/12 01:25:22;;;;;;;66.97;25.07;;;8.70;99.90;;;;;;5051522;28;20274;-69
2024/03/12 01:27:48;;;;;;;47.43;21.03;;;8.70;99.90;;;;;;5051553;28;20179;-70
2024/03/12 01:30:16;;;;;;;46.60;22.73;;;8.60;99.90;;;;;;5051451;28;21097;-70
2024/03/12 01:32:45;;;;;;;41.13;20.73;;;8.60;99.90;;;;;;5051550;28;20240;-69
2024/03/12 01:35:14;;;;;;;34.57;18.80;;;8.60;99.90;;;;;;5051324;28;20908;-69
2024/03/12 01:37:41;;;;;;;38.83;18.97;;;8.60;99.90;;;;;;5051841;28;20437;-70
2024/03/12 01:40:29;;;;;;;42.67;19.77;;;8.50;99.90;;;;;;5049977;28;20814;-69
2024/03/12 01:43:03;;;;;;;32.10;19.60;;;8.50;99.90;;;;;;5051537;28;20421;-69
2024/03/12 01:45:30;;;;;;;35.23;19.30;;;8.60;99.90;;;;;;5051267;28;20824;-70
2024/03/12 01:48:06;;;;;;;37.00;19.77;;;8.60;99.90;;;;;;5051205;28;20421;-70
2024/03/12 01:50:32;;;;;;;33.27;18.10;;;8.60;99.90;;;;;;5051431;28;20444;-70
2024/03/12 01:53:05;;;;;;;40.60;20.93;;;8.70;99.90;;;;;;5051179;28;20800;-69
2024/03/12 01:55:41;;;;;;;31.67;18.57;;;8.70;99.90;;;;;;5051148;28;20656;-70
2024/03/12 01:58:07;;;;;;;27.43;15.23;;;8.70;99.90;;;;;;5053320;28;20428;-69
2024/03/12 02:00:33;;;;;;;28.87;17.63;;;8.80;99.90;;;;;;5054246;28;20783;-70
2024/03/12 02:02:59;;;;;;;41.43;18.90;;;8.80;99.90;;;;;;5055149;28;20413;-70
2024/03/12 02:05:24;;;;;;;33.30;17.83;;;8.80;99.90;;;;;;5054881;28;20634;-70
2024/03/12 02:07:53;;;;;;;33.40;17.10;;;8.80;99.90;;;;;;5055000;28;20674;-70
2024/03/12 02:10:19;;;;;;;31.77;17.30;;;8.80;99.90;;;;;;5054766;28;20190;-69
2024/03/12 02:12:46;;;;;;;33.37;16.60;;;8.70;99.90;;;;;;5054876;28;20922;-70
2024/03/12 02:15:13;;;;;;;42.97;19.20;;;8.70;99.90;;;;;;5055009;28;20497;-70
2024/03/12 02:17:39;;;;;;;29.97;17.60;;;8.70;99.90;;;;;;5055076;28;20425;-70
2024/03/12 02:20:09;;;;;;;31.20;17.43;;;8.80;99.90;;;;;;5054841;28;20405;-70
2024/03/12 02:22:35;;;;;;;33.07;17.77;;;8.80;99.90;;;;;;5055308;28;20500;-69
2024/03/12 02:25:03;;;;;;;27.57;16.83;;;8.90;99.90;;;;;;5053241;28;20810;-70
2024/03/12 02:27:28;;;;;;;36.97;16.70;;;8.90;99.90;;;;;;5054705;28;20428;-69
2024/03/12 02:29:54;;;;;;;32.53;17.30;;;9.00;99.90;;;;;;5054601;28;20457;-70
2024/03/12 02:32:20;;;;;;;39.90;16.87;;;9.00;99.90;;;;;;5054407;28;20273;-69
2024/03/12 02:34:45;;;;;;;28.97;16.70;;;9.00;99.90;;;;;;5054283;28;20171;-69
2024/03/12 02:37:11;;;;;;;27.00;17.17;;;9.10;99.90;;;;;;5054432;28;20162;-69
2024/03/12 02:39:36;;;;;;;25.67;16.17;;;9.10;99.90;;;;;;5054267;28;20163;-69
2024/03/12 02:42:02;;;;;;;28.90;13.90;;;9.10;99.90;;;;;;5054461;28;20200;-70
2024/03/12 02:44:27;;;;;;;28.27;16.07;;;9.20;99.90;;;;;;5054134;28;20189;-69
2024/03/12 02:46:54;;;;;;;35.77;16.53;;;9.20;99.90;;;;;;5054804;28;20171;-69
2024/03/12 02:49:20;;;;;;;29.90;14.00;;;9.20;99.90;;;;;;5054168;28;20189;-69
2024/03/12 02:51:46;;;;;;;27.17;15.43;;;9.20;99.90;;;;;;5054218;28;20725;-69
2024/03/12 02:54:15;;;;;;;31.10;14.13;;;9.20;99.90;;;;;;5053806;28;20618;-69
2024/03/12 02:56:42;;;;;;;24.90;13.80;;;9.20;99.90;;;;;;5054053;28;20405;-69
2024/03/12 02:59:10;;;;;;;31.30;14.17;;;9.20;99.90;;;;;;5053891;28;20830;-69
2024/03/12 03:01:35;;;;;;;27.77;14.77;;;9.10;99.90;;;;;;5053742;28;20746;-69
2024/03/12 03:04:02;;;;;;;27.87;13.57;;;9.10;99.90;;;;;;5053765;28;20416;-69
2024/03/12 03:06:28;;;;;;;24.57;13.93;;;9.10;99.90;;;;;;5053995;28;20163;-69
2024/03/12 03:08:53;;;;;;;30.50;15.13;;;9.10;99.90;;;;;;5052912;28;21115;-69
2024/03/12 03:11:19;;;;;;;25.10;14.50;;;9.00;99.90;;;;;;5053816;28;20600;-69
2024/03/12 03:13:44;;;;;;;26.70;13.27;;;9.00;99.90;;;;;;5053288;28;20213;-69
2024/03/12 03:16:10;;;;;;;26.23;14.30;;;8.90;99.90;;;;;;5053782;28;20217;-69
2024/03/12 03:18:36;;;;;;;22.60;12.57;;;8.90;99.90;;;;;;5053695;28;20708;-70
2024/03/12 03:21:02;;;;;;;17.93;12.27;;;8.90;99.90;;;;;;5052495;28;20173;-69
2024/03/12 03:23:28;;;;;;;23.77;13.27;;;8.80;99.90;;;;;;5053782;28;20170;-69
2024/03/12 03:25:53;;;;;;;22.47;12.60;;;8.80;99.90;;;;;;5052117;28;20452;-69
2024/03/12 03:28:19;;;;;;;28.47;13.23;;;8.80;99.90;;;;;;5053573;28;20252;-69
2024/03/12 03:30:44;;;;;;;23.47;13.00;;;8.80;99.90;;;;;;5053495;28;20722;-69
2024/03/12 03:33:11;;;;;;;20.50;12.97;;;8.90;99.90;;;;;;5053451;28;20460;-69
2024/03/12 03:35:37;;;;;;;17.70;11.53;;;8.90;99.90;;;;;;5053267;28;20163;-69
2024/03/12 03:38:05;;;;;;;19.23;11.17;;;8.80;99.90;;;;;;5053388;28;20426;-69
2024/03/12 03:40:32;;;;;;;27.20;10.87;;;8.80;99.90;;;;;;5053423;28;20915;-69
2024/03/12 03:42:57;;;;;;;19.60;12.83;;;8.50;99.90;;;;;;5053285;28;20413;-69
2024/03/12 03:45:23;;;;;;;27.70;13.13;;;8.60;99.90;;;;;;5052959;28;20405;-69
2024/03/12 03:47:49;;;;;;;25.07;15.47;;;8.60;99.90;;;;;;5053109;28;20675;-69
2024/03/12 03:50:15;;;;;;;20.37;11.67;;;8.60;99.90;;;;;;5053067;28;20206;-69
2024/03/12 03:52:41;;;;;;;18.20;10.63;;;8.60;99.90;;;;;;5053108;28;20444;-69
2024/03/12 03:55:09;;;;;;;17.37;11.23;;;8.60;99.90;;;;;;5052850;28;20704;-69
2024/03/12 03:57:34;;;;;;;25.57;12.50;;;8.50;99.90;;;;;;5051638;28;20516;-69
2024/03/12 04:00:12;;;;;;;29.53;15.27;;;8.50;99.90;;;;;;5052906;28;20501;-69
2024/03/12 04:02:43;;;;;;;18.27;10.90;;;8.50;99.90;;;;;;5051591;28;20194;-69
2024/03/12 04:05:09;;;;;;;17.93;10.60;;;8.50;99.90;;;;;;5052753;28;20412;-69
2024/03/12 04:07:35;;;;;;;16.63;10.13;;;8.50;99.90;;;;;;5052734;28;20445;-69
2024/03/12 04:10:00;;;;;;;16.67;10.77;;;8.50;99.90;;;;;;5052707;28;20449;-69
2024/03/12 04:12:26;;;;;;;21.03;12.33;;;8.50;99.90;;;;;;5052766;28;20284;-69
2024/03/12 04:14:52;;;;;;;19.83;12.57;;;8.50;99.90;;;;;;5052472;28;20167;-69
2024/03/12 04:17:18;;;;;;;17.47;11.23;;;8.50;99.90;;;;;;5052663;28;20523;-69
2024/03/12 04:19:47;;;;;;;20.63;12.57;;;8.40;99.90;;;;;;5052559;28;20167;-69
2024/03/12 04:22:16;;;;;;;17.57;9.80;;;8.40;99.90;;;;;;5052570;28;20441;-69
2024/03/12 04:24:43;;;;;;;17.67;11.13;;;8.30;99.90;;;;;;5052302;28;20409;-69
2024/03/12 04:27:14;;;;;;;22.10;10.73;;;8.30;99.90;;;;;;5052379;28;20416;-69
2024/03/12 04:29:40;;;;;;;16.90;9.80;;;8.30;99.90;;;;;;5052492;28;20544;-69
2024/03/12 04:32:06;;;;;;;18.50;10.40;;;8.30;99.90;;;;;;5052290;28;20484;-69
2024/03/12 04:34:33;;;;;;;18.87;10.00;;;8.20;99.90;;;;;;5051956;28;20559;-69
2024/03/12 04:36:59;;;;;;;18.97;9.87;;;8.20;99.90;;;;;;5052195;28;20220;-69
2024/03/12 04:39:30;;;;;;;20.20;11.90;;;8.30;99.90;;;;;;5052121;28;20515;-69
2024/03/12 04:42:09;;;;;;;18.17;9.27;;;8.30;99.90;;;;;;5052122;28;20484;-69
2024/03/12 04:44:34;;;;;;;23.13;11.37;;;8.30;99.90;;;;;;5052031;28;20488;-69
2024/03/12 04:47:00;;;;;;;21.60;11.57;;;8.30;99.90;;;;;;5051988;28;20520;-69
2024/03/12 04:49:27;;;;;;;17.37;10.17;;;8.40;99.90;;;;;;5051928;28;20191;-69
2024/03/12 04:51:53;;;;;;;20.80;10.20;;;8.40;99.90;;;;;;5052058;28;20433;-69
2024/03/12 04:54:19;;;;;;;12.70;10.20;;;8.50;99.90;;;;;;5051241;28;20402;-69
2024/03/12 04:56:50;;;;;;;23.17;9.77;;;8.50;99.90;;;;;;5051985;28;20409;-69
2024/03/12 04:59:16;;;;;;;18.77;11.90;;;8.60;99.90;;;;;;5051879;28;20512;-69
2024/03/12 05:01:45;;;;;;;17.73;9.73;;;8.60;99.90;;;;;;5053002;28;20513;-69
2024/03/12 05:04:14;;;;;;;21.37;11.47;;;8.70;99.90;;;;;;5051806;28;20481;-69
2024/03/12 05:06:40;;;;;;;19.50;10.27;;;8.60;99.90;;;;;;5051791;28;20757;-69
2024/03/12 05:09:06;;;;;;;21.17;10.80;;;8.60;99.90;;;;;;5051775;28;20513;-69
2024/03/12 05:11:32;;;;;;;20.70;11.60;;;8.50;99.90;;;;;;5051759;28;20194;-69
2024/03/12 05:13:57;;;;;;;19.03;10.33;;;8.40;99.90;;;;;;5051515;28;20541;-69
2024/03/12 05:16:26;;;;;;;19.60;11.37;;;8.40;99.90;;;;;;5051717;28;20912;-69
2024/03/12 05:18:52;;;;;;;15.97;11.20;;;8.40;99.90;;;;;;5051928;28;20721;-69
2024/03/12 05:21:17;;;;;;;19.20;10.23;;;8.40;99.90;;;;;;5051630;28;20437;-69
2024/03/12 05:23:43;;;;;;;19.33;11.40;;;8.40;99.90;;;;;;5051565;28;20209;-69
2024/03/12 05:26:09;;;;;;;24.50;10.77;;;8.50;99.90;;;;;;5051600;28;20213;-69
2024/03/12 05:28:35;;;;;;;25.23;12.87;;;8.50;99.90;;;;;;5051737;28;20457;-69
2024/03/12 05:31:01;;;;;;;19.47;10.73;;;8.40;99.90;;;;;;5051665;28;20229;-69
2024/03/12 05:33:38;;;;;;;23.33;13.03;;;8.30;99.90;;;;;;5054437;28;20918;-69
2024/03/12 05:36:09;;;;;;;21.47;11.70;;;8.30;99.90;;;;;;5055646;28;20405;-69
2024/03/12 05:38:37;;;;;;;21.60;11.20;;;8.40;99.90;;;;;;5055654;28;20896;-69
2024/03/12 05:49:06;;;;;;;19.07;10.37;;;8.40;99.90;;;;;;5055510;28;20424;-69
2024/03/12 05:51:34;;;;;;;18.47;10.77;;;8.40;99.90;;;;;;5055271;28;20963;-69
2024/03/12 05:54:00;;;;;;;17.93;10.30;;;8.50;99.90;;;;;;5055171;28;20155;-69
2024/03/12 05:56:26;;;;;;;24.60;11.80;;;8.40;99.90;;;;;;5055350;28;20423;-69
2024/03/12 05:58:52;;;;;;;22.00;12.23;;;8.30;99.90;;;;;;5055218;28;20674;-69
2024/03/12 06:01:17;;;;;;;20.40;11.67;;;8.30;99.90;;;;;;5055263;28;20481;-69
2024/03/12 06:03:43;;;;;;;22.17;10.90;;;8.30;99.90;;;;;;5054848;28;20167;-69
2024/03/12 06:06:09;;;;;;;22.07;12.90;;;8.20;99.90;;;;;;5055256;28;20163;-69
2024/03/12 06:08:35;;;;;;;22.30;12.57;;;8.20;99.90;;;;;;5055384;28;20265;-69
2024/03/12 06:11:00;;;;;;;27.10;12.57;;;8.10;99.90;;;;;;5054978;28;20187;-69
2024/03/12 06:13:27;;;;;;;22.47;11.90;;;8.20;99.90;;;;;;5054975;28;20472;-69
2024/03/12 06:15:53;;;;;;;18.83;11.80;;;8.20;99.90;;;;;;5055771;28;20163;-69
2024/03/12 06:18:18;;;;;;;26.63;11.10;;;8.20;99.90;;;;;;5055291;28;20425;-69
2024/03/12 06:20:46;;;;;;;19.47;11.13;;;8.20;99.90;;;;;;5054964;28;20438;-69
2024/03/12 06:23:15;;;;;;;22.70;10.67;;;8.30;99.90;;;;;;5054973;28;20486;-69
2024/03/12 06:25:40;;;;;;;20.00;10.93;;;8.30;99.90;;;;;;5053316;28;20416;-69
2024/03/12 06:28:06;;;;;;;23.17;10.70;;;8.40;99.90;;;;;;5054538;28;20948;-69
2024/03/12 06:30:34;;;;;;;18.33;11.33;;;8.40;99.90;;;;;;5053374;28;20526;-69
2024/03/12 06:33:03;;;;;;;17.97;11.00;;;8.40;99.90;;;;;;5054620;28;20170;-69
2024/03/12 06:35:29;;;;;;;23.40;12.40;;;8.40;99.90;;;;;;5054566;28;20447;-69
2024/03/12 06:37:55;;;;;;;18.73;10.03;;;8.50;99.90;;;;;;5054567;28;20815;-69
2024/03/12 06:40:25;;;;;;;21.77;10.33;;;8.50;99.90;;;;;;5054553;28;20167;-69
2024/03/12 06:42:51;;;;;;;25.17;11.90;;;8.50;99.90;;;;;;5054400;28;20455;-69
2024/03/12 06:45:17;;;;;;;14.57;9.43;;;8.50;99.90;;;;;;5052864;28;20409;-69
2024/03/12 06:47:43;;;;;;;25.03;10.93;;;8.60;99.90;;;;;;5054361;28;20425;-69
2024/03/12 06:50:09;;;;;;;20.70;11.70;;;8.30;99.90;;;;;;5054334;28;20781;-69
2024/03/12 06:52:35;;;;;;;25.90;12.27;;;8.30;99.90;;;;;;5054349;28;20265;-69
2024/03/12 06:55:04;;;;;;;26.80;10.37;;;8.30;99.90;;;;;;5053945;28;20401;-69
2024/03/12 06:57:32;;;;;;;22.90;11.93;;;8.40;99.90;;;;;;5054146;28;20421;-70
2024/03/12 06:59:59;;;;;;;17.37;10.47;;;8.30;99.90;;;;;;5054276;28;20510;-70
2024/03/12 07:02:24;;;;;;;17.37;10.33;;;8.40;99.90;;;;;;5054169;28;20442;-70
2024/03/12 07:04:51;;;;;;;17.77;10.27;;;8.40;99.90;;;;;;5053938;28;20425;-70
2024/03/12 07:07:19;;;;;;;19.97;10.50;;;8.50;99.90;;;;;;5053677;28;20557;-70
2024/03/12 07:09:49;;;;;;;17.20;9.57;;;8.40;99.90;;;;;;5053748;28;20817;-70
2024/03/12 07:12:16;;;;;;;15.13;9.33;;;8.30;99.90;;;;;;5053831;28;20504;-70
2024/03/12 07:14:43;;;;;;;18.93;10.33;;;8.40;99.90;;;;;;5053497;28;20397;-70
2024/03/12 07:17:10;;;;;;;22.43;10.10;;;8.40;99.90;;;;;;5053712;28;20434;-70
2024/03/12 07:19:39;;;;;;;16.67;9.90;;;8.40;99.90;;;;;;5053795;28;20926;-70
2024/03/12 07:22:07;;;;;;;12.30;9.33;;;8.30;99.90;;;;;;5053655;28;20455;-71
2024/03/12 07:24:37;;;;;;;20.87;11.27;;;8.30;99.90;;;;;;5053522;28;20435;-69
2024/03/12 07:27:07;;;;;;;23.40;11.50;;;8.30;99.90;;;;;;5053901;28;20768;-69
2024/03/12 07:29:33;;;;;;;25.83;12.03;;;8.40;99.90;;;;;;5053557;28;20421;-70
2024/03/12 07:32:03;;;;;;;20.53;11.60;;;8.50;99.90;;;;;;5053980;28;20444;-70
2024/03/12 07:34:32;;;;;;;24.93;12.00;;;8.40;99.90;;;;;;5053280;28;20992;-70
2024/03/12 07:36:59;;;;;;;23.27;12.27;;;8.50;99.90;;;;;;5053459;28;20417;-70
2024/03/12 07:39:26;;;;;;;20.40;12.77;;;8.50;99.90;;;;;;5053206;28;20467;-69
2024/03/12 07:41:54;;;;;;;24.80;13.67;;;8.50;99.90;;;;;;5053263;28;20406;-69
2024/03/12 07:44:19;;;;;;;31.00;12.67;;;8.70;99.90;;;;;;5052978;28;20397;-70
2024/03/12 07:46:46;;;;;;;21.57;11.27;;;8.70;99.90;;;;;;5053320;28;20400;-70
2024/03/12 07:49:11;;;;;;;31.60;14.00;;;8.70;99.90;;;;;;5053108;28;20186;-70
2024/03/12 07:51:37;;;;;;;42.40;20.63;;;8.70;99.90;;;;;;5053018;28;20453;-70
2024/03/12 07:54:06;;;;;;;33.90;16.50;;;8.60;99.90;;;;;;5052876;28;20167;-69
2024/03/12 07:56:32;;;;;;;28.63;13.43;;;8.60;99.90;;;;;;5052610;28;20397;-70
2024/03/12 07:58:58;;;;;;;22.27;11.97;;;8.70;99.90;;;;;;5053009;28;20509;-70
2024/03/12 08:01:26;;;;;;;27.67;11.90;;;8.70;99.90;;;;;;5053071;28;20405;-70
2024/03/12 08:03:52;;;;;;;22.40;11.23;;;8.80;99.90;;;;;;5052745;28;20181;-69
2024/03/12 08:06:19;;;;;;;23.00;12.63;;;8.80;99.90;;;;;;5053057;28;20401;-70
2024/03/12 08:08:45;;;;;;;21.20;10.93;;;8.90;99.90;;;;;;5052852;28;20804;-70
2024/03/12 08:11:11;;;;;;;25.70;11.17;;;8.80;99.90;;;;;;5052737;28;20453;-70
2024/03/12 08:13:36;;;;;;;26.40;13.47;;;8.80;99.90;;;;;;5052742;28;20408;-70
2024/03/12 08:16:02;;;;;;;21.17;11.80;;;8.80;99.90;;;;;;5052921;28;20169;-70
2024/03/12 08:18:29;;;;;;;21.20;11.50;;;8.80;99.90;;;;;;5052625;28;20680;-69
2024/03/12 08:20:54;;;;;;;24.43;12.70;;;8.70;99.90;;;;;;5053020;28;20198;-73
2024/03/12 08:23:20;;;;;;;21.33;11.10;;;8.80;99.90;;;;;;5052896;28;20409;-70
2024/03/12 08:25:46;;;;;;;21.50;10.87;;;8.80;99.90;;;;;;5051208;28;20610;-70
2024/03/12 08:28:13;;;;;;;17.43;10.20;;;8.90;99.90;;;;;;5052669;28;20232;-70
2024/03/12 08:30:39;;;;;;;30.90;11.80;;;9.00;99.90;;;;;;5052511;28;20193;-70
2024/03/12 08:33:05;;;;;;;24.10;12.10;;;9.10;99.90;;;;;;5052562;28;20402;-70
2024/03/12 08:35:31;;;;;;;21.77;9.70;;;9.10;99.90;;;;;;5052724;28;20294;-67
2024/03/12 08:37:56;;;;;;;24.67;11.07;;;9.00;99.90;;;;;;5051924;28;20500;-69
2024/03/12 08:40:22;;;;;;;20.70;10.97;;;9.00;99.90;;;;;;5051993;28;20167;-68
2024/03/12 08:42:47;;;;;;;19.23;8.60;;;9.10;99.90;;;;;;5052319;28;20649;-67
2024/03/12 08:45:14;;;;;;;21.67;10.63;;;9.00;99.90;;;;;;5051983;28;20182;-68
2024/03/12 08:47:40;;;;;;;13.77;10.33;;;9.00;99.90;;;;;;5052108;28;20187;-68
2024/03/12 08:50:07;;;;;;;22.80;10.10;;;9.10;99.90;;;;;;5052243;28;20460;-69
2024/03/12 08:52:35;;;;;;;19.97;10.40;;;9.30;99.90;;;;;;5051975;28;20425;-68
2024/03/12 08:55:01;;;;;;;19.53;11.30;;;9.40;99.90;;;;;;5051863;28;20397;-68
2024/03/12 08:57:26;;;;;;;19.07;10.43;;;9.40;99.90;;;;;;5051952;28;20417;-68
2024/03/12 08:59:52;;;;;;;18.10;9.53;;;9.40;99.90;;;;;;5052006;28;20416;-67
2024/03/12 09:02:18;;;;;;;19.53;10.67;;;9.40;99.90;;;;;;5051892;28;20171;-68
2024/03/12 09:04:44;;;;;;;20.07;11.30;;;9.50;99.90;;;;;;5051759;28;20529;-67
2024/03/12 09:07:10;;;;;;;18.43;9.70;;;9.50;99.90;;;;;;5051238;28;20497;-67
2024/03/12 09:09:37;;;;;;;18.30;10.57;;;9.60;99.90;;;;;;5051764;28;20641;-68
2024/03/12 09:12:03;;;;;;;16.40;10.30;;;9.70;99.90;;;;;;5051835;28;20401;-69
2024/03/12 09:14:30;;;;;;;18.77;10.87;;;9.60;99.90;;;;;;5051592;28;20409;-67
2024/03/12 09:16:56;;;;;;;17.57;10.27;;;9.50;99.90;;;;;;5051773;28;20157;-67
2024/03/12 09:19:24;;;;;;;15.37;10.07;;;9.50;99.90;;;;;;5051721;28;20482;-68
2024/03/12 09:21:50;;;;;;;18.17;11.17;;;9.60;99.90;;;;;;5051797;28;20163;-67
2024/03/12 09:24:15;;;;;;;13.87;9.43;;;9.60;99.90;;;;;;5051504;28;20885;-68
2024/03/12 09:26:43;;;;;;;17.93;10.47;;;9.60;99.90;;;;;;5051748;28;20718;-69
2024/03/12 09:29:10;;;;;;;13.30;9.00;;;9.60;99.90;;;;;;5051642;28;20665;-68
2024/03/12 09:31:36;;;;;;;13.73;10.50;;;9.50;99.90;;;;;;5051509;28;21025;-68
2024/03/12 09:34:02;;;;;;;18.50;10.33;;;9.50;99.90;;;;;;5051570;28;20412;-68
2024/03/12 09:36:27;;;;;;;17.67;10.00;;;9.50;99.90;;;;;;5051654;28;20816;-69
2024/03/12 09:38:53;;;;;;;16.30;8.77;;;9.60;99.90;;;;;;5051063;28;20190;-68
2024/03/12 09:41:23;;;;;;;18.17;10.90;;;9.70;99.90;;;;;;5051566;28;20175;-68
2024/03/12 09:43:51;;;;;;;13.80;9.70;;;9.70;99.90;;;;;;5051286;28;20493;-69
2024/03/12 09:46:16;;;;;;;22.40;11.30;;;9.60;99.90;;;;;;5051530;28;20413;-68
2024/03/12 09:48:42;;;;;;;18.43;9.70;;;9.40;99.90;;;;;;5051416;28;20937;-68
2024/03/12 09:51:09;;;;;;;18.57;10.90;;;9.30;99.90;;;;;;5051041;28;20217;-68
2024/03/12 09:53:36;;;;;;;18.23;10.27;;;9.30;99.90;;;;;;5051419;28;20417;-68
2024/03/12 09:56:06;;;;;;;21.90;11.43;;;9.20;99.90;;;;;;5051465;28;20459;-69
2024/03/12 09:58:33;;;;;;;22.47;11.03;;;9.30;99.90;;;;;;5031172;28;20525;-68
2024/03/12 10:01:02;;;;;;;20.60;11.37;;;9.50;99.90;;;;;;5030534;28;21060;-68
2024/03/12 10:03:31;;;;;;;18.57;11.53;;;9.60;99.90;;;;;;5031404;28;20406;-68
2024/03/12 10:05:57;;;;;;;16.57;11.10;;;9.90;99.90;;;;;;5031218;28;20410;-68
2024/03/12 10:08:28;;;;;;;17.70;9.87;;;10.20;99.90;;;;;;5030957;28;20434;-68
2024/03/12 10:10:54;;;;;;;17.77;10.07;;;10.70;99.90;;;;;;5031354;28;20240;-68
2024/03/12 10:13:20;;;;;;;22.70;10.83;;;11.10;99.90;;;;;;5031368;28;20406;-69
2024/03/12 10:15:59;;;;;;;19.77;10.93;;;11.30;99.90;;;;;;5031148;28;20403;-67
2024/03/12 10:18:30;;;;;;;16.80;10.00;;;11.30;99.90;;;;;;5032124;28;20222;-68
2024/03/12 10:20:58;;;;;;;18.40;10.73;;;11.40;99.90;;;;;;5035149;28;20429;-69
2024/03/12 10:23:25;;;;;;;19.17;10.97;;;11.40;99.90;;;;;;5034888;28;20433;-68
2024/03/12 10:26:07;;;;;;;19.27;10.50;;;11.50;99.90;;;;;;5034777;28;20414;-67
2024/03/12 10:28:34;;;;;;;23.67;11.93;;;11.60;99.90;;;;;;5035017;28;20512;-69
2024/03/12 10:31:11;;;;;;;19.73;10.33;;;11.50;99.90;;;;;;5034891;28;20537;-68
2024/03/12 10:33:42;;;;;;;18.00;11.43;;;11.50;99.90;;;;;;5034351;28;20445;-71
2024/03/12 10:36:10;;;;;;;19.40;11.50;;;11.50;99.90;;;;;;5034727;28;20414;-68
2024/03/12 10:38:40;;;;;;;18.43;11.30;;;11.50;99.90;;;;;;5033980;28;20475;-68
2024/03/12 10:41:16;;;;;;;17.63;11.60;;;11.40;99.90;;;;;;5034683;28;20485;-67
2024/03/12 10:43:42;;;;;;;22.03;11.87;;;11.20;99.90;;;;;;5034454;28;20901;-68
2024/03/12 10:46:10;;;;;;;14.50;8.97;;;11.00;99.90;;;;;;5034640;28;20505;-68
2024/03/12 10:48:38;;;;;;;28.73;13.30;;;11.20;99.90;;;;;;5033239;28;20233;-68
2024/03/12 10:51:04;;;;;;;18.63;12.30;;;11.50;99.90;;;;;;5034299;28;20449;-68
2024/03/12 10:53:30;;;;;;;20.80;12.47;;;11.70;99.90;;;;;;5034483;28;20406;-67
2024/03/12 10:55:58;;;;;;;19.43;10.90;;;12.10;99.90;;;;;;5034190;28;20434;-68
2024/03/12 10:58:25;;;;;;;16.97;12.03;;;12.50;99.90;;;;;;5033598;28;20929;-68
2024/03/12 11:00:51;;;;;;;13.83;10.27;;;12.80;99.90;;;;;;5034278;28;20447;-69
2024/03/12 11:03:23;;;;;;;15.73;11.53;;;13.10;99.90;;;;;;5034238;28;20407;-68
2024/03/12 11:05:49;;;;;;;24.50;12.77;;;13.10;99.90;;;;;;5034004;28;20483;-68
2024/03/12 11:08:16;;;;;;;24.23;11.90;;;13.10;99.90;;;;;;5034101;28;20438;-68
2024/03/12 11:10:43;;;;;;;20.10;11.50;;;13.10;99.90;;;;;;5034262;28;20480;-68
2024/03/12 11:13:10;;;;;;;25.13;14.00;;;12.80;99.90;;;;;;5034067;28;20403;-68
2024/03/12 11:15:36;;;;;;;20.70;10.83;;;12.60;99.90;;;;;;5033692;28;20485;-67
2024/03/12 11:18:05;;;;;;;20.50;11.57;;;12.80;99.90;;;;;;5033355;28;20430;-67
2024/03/12 11:20:31;;;;;;;20.53;12.17;;;13.10;99.90;;;;;;5032382;28;20933;-68
2024/03/12 11:23:00;;;;;;;18.47;12.47;;;13.20;99.90;;;;;;5033883;28;20410;-68
2024/03/12 11:25:38;;;;;;;19.40;12.07;;;13.20;99.90;;;;;;5033591;28;20534;-68
2024/03/12 11:28:27;;;;;;;17.73;11.00;;;13.50;99.90;;;;;;5033696;28;20449;-68
2024/03/12 11:31:04;;;;;;;20.40;10.93;;;13.70;99.90;;;;;;5027401;28;20469;-68
2024/03/12 11:33:41;;;;;;;17.20;10.43;;;13.60;99.90;;;;;;5033664;28;20398;-68
2024/03/12 11:36:21;;;;;;;18.60;11.37;;;13.60;99.90;;;;;;5033606;28;20822;-67
2024/03/12 11:38:48;;;;;;;18.53;10.43;;;13.60;99.90;;;;;;5033562;28;20417;-67
2024/03/12 11:41:16;;;;;;;22.13;13.70;;;13.50;99.90;;;;;;5032390;28;20453;-69
2024/03/12 11:43:42;;;;;;;19.53;11.00;;;13.40;99.90;;;;;;5033201;28;20410;-68
2024/03/12 11:46:09;;;;;;;19.47;12.60;;;13.40;99.90;;;;;;5033445;28;20405;-68
2024/03/12 11:48:36;;;;;;;20.47;12.10;;;13.40;99.90;;;;;;5033368;28;20195;-68
2024/03/12 11:51:04;;;;;;;16.70;11.57;;;13.60;99.90;;;;;;5033044;28;20528;-68
2024/03/12 11:53:35;;;;;;;21.63;12.37;;;14.40;99.90;;;;;;5033337;28;20434;-68
2024/03/12 11:56:07;;;;;;;19.47;11.37;;;16.30;99.90;;;;;;5033122;28;20425;-68
2024/03/12 11:58:38;;;;;;;23.77;12.50;;;19.50;99.90;;;;;;5033294;28;20905;-68
2024/03/12 12:01:06;;;;;;;19.03;11.00;;;23.50;90.80;;;;;;5033171;28;20480;-69
2024/03/12 12:03:34;;;;;;;16.17;11.27;;;26.80;60.90;;;;;;5033012;28;20446;-68
2024/03/12 12:06:00;;;;;;;18.47;13.77;;;27.50;51.00;;;;;;5032795;28;20414;-69
2024/03/12 12:08:27;;;;;;;16.20;12.50;;;26.00;43.40;;;;;;5032957;28;20929;-69
2024/03/12 12:11:00;;;;;;;14.90;11.80;;;25.50;43.30;;;;;;5032860;28;20446;-68
2024/03/12 12:13:27;;;;;;;21.03;11.87;;;26.30;43.40;;;;;;5032848;28;20402;-68
2024/03/12 12:16:01;;;;;;;14.27;11.60;;;26.90;41.20;;;;;;5032543;28;20465;-68
2024/03/12 12:18:35;;;;;;;18.43;12.50;;;26.80;39.40;;;;;;5032795;28;20429;-68
2024/03/12 12:21:03;;;;;;;16.13;13.47;;;25.30;38.60;;;;;;5031526;28;20489;-68
2024/03/12 12:23:29;;;;;;;16.90;12.87;;;23.00;38.90;;;;;;5032763;28;20407;-68
2024/03/12 12:25:57;;;;;;;19.43;14.10;;;21.50;41.40;;;;;;5032487;28;20417;-68
2024/03/12 12:28:26;;;;;;;20.50;13.57;;;20.00;43.60;;;;;;5031291;28;20483;-69
2024/03/12 12:31:00;;;;;;;17.43;12.40;;;19.00;46.00;;;;;;5032541;28;20450;-68
2024/03/12 12:33:28;;;;;;;15.10;11.83;;;18.00;47.40;;;;;;5032749;28;20395;-69
2024/03/12 12:35:55;;;;;;;19.33;12.77;;;17.40;49.70;;;;;;5032298;28;20402;-67
2024/03/12 12:38:25;;;;;;;17.57;13.13;;;16.80;51.30;;;;;;5032428;28;20422;-67
2024/03/12 12:40:53;;;;;;;17.10;10.50;;;17.00;53.50;;;;;;5032320;28;20402;-68
2024/03/12 12:43:22;;;;;;;16.60;11.93;;;16.70;53.80;;;;;;5032411;28;20452;-68
2024/03/12 12:45:49;;;;;;;17.03;12.40;;;16.30;53.80;;;;;;5032171;28;20421;-68